createdAt,value
2023-03-18T00:02:23.158Z,12.20
2023-03-18T00:07:46.986Z,11.68
2023-03-18T00:13:10.784Z,10.93
2023-03-18T00:18:34.742Z,10.95
2023-03-18T00:23:58.991Z,11.45
2023-03-18T00:29:24.725Z,11.38
2023-03-18T00:34:47.060Z,11.22
2023-03-18T00:40:16.597Z,10.40
2023-03-18T00:45:39.670Z,11.50
2023-03-18T00:51:04.419Z,11.83
2023-03-18T00:56:28.226Z,11.75
2023-03-18T01:01:52.463Z,11.12
2023-03-18T01:07:15.837Z,11.53
2023-03-18T01:12:39.661Z,11.30
2023-03-18T01:18:04.300Z,10.70
2023-03-18T01:23:26.826Z,11.33
2023-03-18T01:28:49.925Z,11.20
2023-03-18T01:34:12.618Z,10.50
2023-03-18T01:39:37.623Z,10.10
2023-03-18T01:45:19.644Z,9.70
2023-03-18T01:50:46.223Z,10.95
2023-03-18T01:56:10.227Z,10.70
2023-03-18T02:02:01.691Z,10.45
2023-03-18T02:07:30.698Z,11.18
2023-03-18T02:12:58.486Z,10.03
2023-03-18T02:18:28.897Z,11.53
2023-03-18T02:24:07.680Z,10.55
2023-03-18T02:29:33.176Z,10.82
2023-03-18T02:34:58.107Z,10.50
2023-03-18T02:40:41.581Z,10.88
2023-03-18T02:46:26.045Z,10.48
2023-03-18T02:51:50.740Z,10.58
2023-03-18T02:57:13.057Z,9.85
2023-03-18T03:02:35.654Z,10.40
2023-03-18T03:07:58.535Z,10.38
2023-03-18T03:13:21.871Z,10.32
2023-03-18T03:18:44.641Z,10.00
2023-03-18T03:24:06.940Z,10.03
2023-03-18T03:29:29.765Z,10.90
2023-03-18T03:34:52.340Z,10.32
2023-03-18T03:40:17.352Z,10.18
2023-03-18T03:45:40.217Z,10.70
2023-03-18T03:51:03.462Z,9.63
2023-03-18T03:56:26.500Z,9.65
2023-03-18T04:01:49.390Z,9.93
2023-03-18T04:07:12.284Z,10.72
2023-03-18T04:12:34.661Z,10.05
2023-03-18T04:17:57.067Z,10.30
2023-03-18T04:23:21.366Z,9.15
2023-03-18T04:28:44.302Z,10.80
2023-03-18T04:34:06.619Z,9.88
2023-03-18T04:39:29.182Z,10.15
2023-03-18T04:44:52.713Z,9.48
2023-03-18T04:50:15.944Z,10.70
2023-03-18T04:55:38.802Z,9.83
2023-03-18T05:01:04.538Z,11.73
2023-03-18T05:06:35.798Z,11.20
2023-03-18T05:11:58.450Z,12.37
2023-03-18T05:17:22.217Z,12.25
2023-03-18T05:22:44.672Z,11.03
2023-03-18T05:28:10.175Z,11.12
2023-03-18T05:33:33.303Z,10.68
2023-03-18T05:38:55.684Z,9.88
2023-03-18T05:44:17.923Z,14.25
2023-03-18T05:49:40.780Z,12.50
2023-03-18T05:55:03.683Z,10.38
2023-03-18T06:00:28.975Z,10.45
2023-03-18T06:05:52.829Z,12.80
2023-03-18T06:11:15.649Z,10.15
2023-03-18T06:16:38.211Z,9.65
2023-03-18T06:22:01.710Z,8.83
2023-03-18T06:27:24.553Z,8.45
2023-03-18T06:32:47.551Z,9.33
2023-03-18T06:38:12.313Z,9.73
2023-03-18T06:43:34.915Z,9.00
2023-03-18T06:48:57.506Z,9.08
2023-03-18T06:54:20.529Z,9.28
2023-03-18T06:59:43.853Z,9.23
2023-03-18T07:05:06.760Z,8.93
2023-03-18T07:10:33.665Z,9.45
2023-03-18T07:15:57.000Z,9.73
2023-03-18T07:21:20.165Z,9.60
2023-03-18T07:26:43.478Z,9.10
2023-03-18T07:32:06.062Z,8.98
2023-03-18T07:37:29.309Z,8.53
2023-03-18T07:42:54.220Z,9.15
2023-03-18T07:48:16.867Z,9.85
2023-03-18T07:53:40.343Z,9.73
2023-03-18T07:59:03.191Z,9.90
2023-03-18T08:04:25.707Z,10.20
2023-03-18T08:09:48.689Z,10.10
2023-03-18T08:15:12.350Z,9.85
2023-03-18T08:20:35.270Z,10.25
2023-03-18T08:26:03.048Z,10.23
2023-03-18T08:31:25.640Z,9.95
2023-03-18T08:36:48.789Z,8.70
2023-03-18T08:42:11.293Z,9.63
2023-03-18T08:47:33.530Z,10.10
2023-03-18T08:52:57.405Z,9.13
2023-03-18T08:58:20.474Z,9.80
2023-03-18T09:03:43.398Z,9.73
2023-03-18T09:09:06.006Z,10.03
2023-03-18T09:14:28.460Z,9.78
2023-03-18T09:19:51.193Z,10.03
2023-03-18T09:25:14.263Z,8.63
2023-03-18T09:30:36.937Z,10.32
2023-03-18T09:36:00.076Z,9.63
2023-03-18T09:41:51.748Z,10.38
2023-03-18T09:47:44.705Z,9.83
2023-03-18T09:53:36.494Z,10.05
2023-03-18T09:59:19.262Z,9.90
2023-03-18T10:04:48.987Z,10.23
2023-03-18T10:10:16.283Z,13.78
2023-03-18T10:15:47.156Z,9.60
2023-03-18T10:21:35.503Z,10.08
2023-03-18T10:27:27.618Z,9.65
2023-03-18T10:33:19.266Z,9.28
2023-03-18T10:38:58.369Z,10.00
2023-03-18T10:44:34.717Z,10.70
2023-03-18T10:50:06.681Z,10.78
2023-03-18T10:55:40.516Z,10.70
2023-03-18T11:01:03.028Z,10.60
2023-03-18T11:06:33.100Z,10.85
2023-03-18T11:12:00.418Z,11.07
2023-03-18T11:17:42.120Z,11.15
2023-03-18T11:23:09.976Z,12.13
2023-03-18T11:28:42.351Z,11.85
2023-03-18T11:34:07.831Z,11.55
2023-03-18T11:39:32.307Z,10.98
2023-03-18T11:44:57.457Z,11.90
2023-03-18T11:50:26.733Z,11.35
2023-03-18T11:56:09.813Z,12.33
2023-03-18T12:01:58.787Z,12.63
2023-03-18T12:08:08.007Z,12.20
2023-03-18T12:13:47.792Z,11.57
2023-03-18T12:19:21.097Z,12.20
2023-03-18T12:25:08.966Z,13.57
2023-03-18T12:30:52.385Z,12.50
2023-03-18T12:36:26.018Z,12.75
2023-03-18T12:41:59.514Z,12.87
2023-03-18T12:47:58.053Z,12.85
2023-03-18T12:53:30.597Z,13.48
2023-03-18T13:04:41.518Z,13.53
2023-03-18T13:10:20.810Z,13.30
2023-03-18T13:15:56.105Z,13.70
2023-03-18T13:21:21.562Z,15.27
2023-03-18T13:27:08.165Z,13.80
2023-03-18T13:33:03.408Z,13.57
2023-03-18T13:38:40.066Z,13.53
2023-03-18T13:44:07.117Z,12.97
2023-03-18T13:49:39.177Z,14.10
2023-03-18T13:55:01.510Z,13.30
2023-03-18T14:00:40.843Z,13.10
2023-03-18T14:06:15.725Z,13.40
2023-03-18T14:11:45.337Z,13.75
2023-03-18T14:17:12.291Z,13.70
2023-03-18T14:22:44.697Z,12.90
2023-03-18T14:28:26.974Z,12.88
2023-03-18T14:34:07.526Z,13.48
2023-03-18T14:45:04.949Z,14.00
2023-03-18T14:50:40.282Z,13.40
2023-03-18T14:56:04.752Z,12.45
2023-03-18T15:01:33.450Z,13.25
2023-03-18T15:07:00.404Z,12.47
2023-03-18T15:12:40.977Z,12.70
2023-03-18T15:23:35.445Z,11.20
2023-03-18T15:29:04.794Z,11.33
2023-03-18T15:34:43.668Z,11.17
2023-03-18T15:40:27.233Z,13.10
2023-03-18T15:46:10.359Z,11.77
2023-03-18T15:51:52.776Z,11.77
2023-03-18T15:57:19.433Z,12.63
2023-03-18T16:02:51.526Z,11.73
2023-03-18T16:08:24.794Z,11.17
2023-03-18T16:13:49.457Z,10.93
2023-03-18T16:19:13.466Z,11.37
2023-03-18T16:24:36.932Z,12.97
2023-03-18T16:29:59.919Z,13.30
2023-03-18T16:35:25.469Z,15.23
2023-03-18T16:40:49.522Z,13.13
2023-03-18T16:46:15.987Z,12.53
2023-03-18T16:51:41.637Z,11.88
2023-03-18T16:57:07.194Z,11.90
2023-03-18T17:02:47.566Z,12.15
2023-03-18T17:08:10.888Z,12.03
2023-03-18T17:13:39.049Z,11.43
2023-03-18T17:19:01.971Z,11.50
2023-03-18T17:24:24.438Z,11.70
2023-03-18T17:29:48.408Z,12.75
2023-03-18T17:35:13.070Z,12.30
2023-03-18T17:40:38.778Z,17.87
2023-03-18T17:46:03.388Z,12.98
2023-03-18T17:51:33.082Z,11.63
2023-03-18T17:56:56.602Z,12.70
2023-03-18T18:02:21.634Z,12.65
2023-03-18T18:07:46.148Z,15.03
2023-03-18T18:13:08.633Z,14.28
2023-03-18T18:18:34.460Z,17.45
2023-03-18T18:23:57.640Z,15.90
2023-03-18T18:29:23.616Z,36.70
2023-03-18T18:34:49.519Z,17.92
2023-03-18T18:40:14.054Z,16.15
2023-03-18T18:45:38.333Z,16.87
2023-03-18T18:51:01.781Z,26.27
2023-03-18T18:56:40.041Z,16.73
2023-03-18T19:02:04.113Z,15.32
2023-03-18T19:07:26.950Z,16.45
2023-03-18T19:12:49.506Z,16.65
2023-03-18T19:18:13.286Z,16.02
2023-03-18T19:23:39.885Z,15.60
2023-03-18T19:29:05.838Z,32.42
2023-03-18T19:34:37.756Z,21.40
2023-03-18T19:40:02.110Z,17.37
2023-03-18T19:45:25.971Z,15.88
2023-03-18T19:50:48.303Z,16.15
2023-03-18T19:56:10.822Z,16.57
2023-03-18T20:01:34.092Z,17.52
2023-03-18T20:06:56.770Z,17.60
2023-03-18T20:12:28.561Z,19.07
2023-03-18T20:18:05.492Z,22.20
2023-03-18T20:23:33.919Z,19.97
2023-03-18T20:28:58.286Z,44.73
2023-03-18T20:34:21.507Z,22.77
2023-03-18T20:39:43.939Z,21.07
2023-03-18T20:45:07.488Z,19.98
2023-03-18T20:50:36.611Z,19.87
2023-03-18T20:55:58.827Z,20.00
2023-03-18T21:01:28.199Z,19.93
2023-03-18T21:06:50.492Z,20.70
2023-03-18T21:12:13.112Z,20.10
2023-03-18T21:17:44.697Z,22.17
2023-03-18T21:23:07.765Z,20.63
2023-03-18T21:28:36.073Z,21.37
2023-03-18T21:33:58.818Z,21.43
2023-03-18T21:39:21.742Z,21.07
2023-03-18T21:44:44.000Z,20.90
2023-03-18T21:50:07.608Z,20.47
2023-03-18T21:55:31.459Z,21.03
2023-03-18T22:00:58.496Z,21.37
2023-03-18T22:06:22.642Z,20.60
2023-03-18T22:11:45.043Z,20.47
2023-03-18T22:17:07.408Z,20.43
2023-03-18T22:22:40.063Z,20.63
2023-03-18T22:28:03.622Z,20.00
2023-03-18T22:33:29.180Z,20.20
2023-03-18T22:38:51.846Z,21.00
2023-03-18T22:44:15.821Z,19.70
2023-03-18T22:49:38.114Z,21.10
2023-03-18T22:55:06.881Z,21.00
2023-03-18T23:00:50.952Z,22.03
2023-03-18T23:06:16.959Z,20.27
2023-03-18T23:11:40.695Z,21.43
2023-03-18T23:17:02.896Z,19.70
2023-03-18T23:22:33.828Z,21.07
2023-03-18T23:27:57.657Z,20.27
2023-03-18T23:33:20.274Z,20.87
2023-03-18T23:38:43.005Z,21.30
2023-03-18T23:44:05.177Z,20.70
2023-03-18T23:49:29.185Z,22.00
2023-03-18T23:54:52.069Z,22.90
